sensor_id;sensor_type;location;lat;lon;timestamp;P1;P2;P0
68198;PMS7003;55021;51.554;17.044;2023-06-04T00:04:45;14.25;13.50;6.50
68198;PMS7003;55021;51.554;17.044;2023-06-04T00:19:47;12.25;12.00;6.00
68198;PMS7003;55021;51.554;17.044;2023-06-04T00:34:51;12.75;12.00;6.25
68198;PMS7003;55021;51.554;17.044;2023-06-04T00:49:55;12.25;11.50;6.00
68198;PMS7003;55021;51.554;17.044;2023-06-04T01:05:00;20.50;12.75;7.00
68198;PMS7003;55021;51.554;17.044;2023-06-04T01:20:18;16.00;13.00;6.00
68198;PMS7003;55021;51.554;17.044;2023-06-04T01:35:25;12.25;12.25;5.75
68198;PMS7003;55021;51.554;17.044;2023-06-04T01:50:27;13.50;12.25;6.00
68198;PMS7003;55021;51.554;17.044;2023-06-04T02:05:30;14.50;11.50;5.00
68198;PMS7003;55021;51.554;17.044;2023-06-04T02:20:33;13.75;13.25;6.00
68198;PMS7003;55021;51.554;17.044;2023-06-04T02:35:35;15.50;12.25;5.50
68198;PMS7003;55021;51.554;17.044;2023-06-04T02:50:38;14.25;13.50;6.00
68198;PMS7003;55021;51.554;17.044;2023-06-04T03:05:40;13.50;13.50;6.00
68198;PMS7003;55021;51.554;17.044;2023-06-04T03:20:43;16.00;14.00;7.00
68198;PMS7003;55021;51.554;17.044;2023-06-04T03:35:45;13.50;11.00;6.00
68198;PMS7003;55021;51.554;17.044;2023-06-04T03:50:48;13.50;12.00;5.25
68198;PMS7003;55021;51.554;17.044;2023-06-04T04:05:51;18.25;13.00;7.50
68198;PMS7003;55021;51.554;17.044;2023-06-04T04:20:53;14.00;12.00;6.00
68198;PMS7003;55021;51.554;17.044;2023-06-04T04:35:56;18.75;18.50;10.00
68198;PMS7003;55021;51.554;17.044;2023-06-04T04:50:58;18.00;15.00;9.75
68198;PMS7003;55021;51.554;17.044;2023-06-04T05:06:01;23.00;16.25;8.75
68198;PMS7003;55021;51.554;17.044;2023-06-04T05:21:03;13.50;12.25;6.75
68198;PMS7003;55021;51.554;17.044;2023-06-04T05:36:06;11.25;10.50;4.00
68198;PMS7003;55021;51.554;17.044;2023-06-04T05:51:09;9.75;9.00;4.00
68198;PMS7003;55021;51.554;17.044;2023-06-04T06:06:11;10.50;10.00;4.75
68198;PMS7003;55021;51.554;17.044;2023-06-04T06:21:13;19.75;16.50;9.00
68198;PMS7003;55021;51.554;17.044;2023-06-04T06:36:16;10.75;8.25;4.00
68198;PMS7003;55021;51.554;17.044;2023-06-04T06:51:18;9.25;7.25;3.00
68198;PMS7003;55021;51.554;17.044;2023-06-04T07:06:20;7.00;6.25;2.25
68198;PMS7003;55021;51.554;17.044;2023-06-04T07:21:23;5.25;5.25;2.00
68198;PMS7003;55021;51.554;17.044;2023-06-04T07:36:25;10.75;8.00;3.00
68198;PMS7003;55021;51.554;17.044;2023-06-04T07:51:29;5.25;5.25;1.25
68198;PMS7003;55021;51.554;17.044;2023-06-04T08:06:32;9.00;6.50;2.00
68198;PMS7003;55021;51.554;17.044;2023-06-04T08:21:34;7.75;7.00;2.25
68198;PMS7003;55021;51.554;17.044;2023-06-04T08:36:37;7.75;7.75;3.25
68198;PMS7003;55021;51.554;17.044;2023-06-04T08:51:39;4.00;4.00;0.50
68198;PMS7003;55021;51.554;17.044;2023-06-04T09:06:41;4.00;4.00;0.00
68198;PMS7003;55021;51.554;17.044;2023-06-04T09:21:51;5.00;5.00;1.00
68198;PMS7003;55021;51.554;17.044;2023-06-04T09:36:54;6.00;5.00;1.00
68198;PMS7003;55021;51.554;17.044;2023-06-04T09:52:14;4.25;4.25;1.00
68198;PMS7003;55021;51.554;17.044;2023-06-04T10:23:17;4.75;4.75;1.75
68198;PMS7003;55021;51.554;17.044;2023-06-04T10:38:20;5.00;5.00;1.00
68198;PMS7003;55021;51.554;17.044;2023-06-04T10:53:35;4.00;4.00;1.00
68198;PMS7003;55021;51.554;17.044;2023-06-04T11:09:00;4.25;4.25;1.00
68198;PMS7003;55021;51.554;17.044;2023-06-04T11:24:20;5.00;5.00;1.00
68198;PMS7003;55021;51.554;17.044;2023-06-04T11:39:33;5.00;4.00;0.00
68198;PMS7003;55021;51.554;17.044;2023-06-04T12:25:27;5.50;5.00;1.00
68198;PMS7003;55021;51.554;17.044;2023-06-04T12:40:31;5.00;4.00;1.00
68198;PMS7003;55021;51.554;17.044;2023-06-04T12:55:34;4.25;3.75;0.50
68198;PMS7003;55021;51.554;17.044;2023-06-04T13:26:09;5.00;4.25;1.00
68198;PMS7003;55021;51.554;17.044;2023-06-04T13:41:12;6.00;5.00;1.00
68198;PMS7003;55021;51.554;17.044;2023-06-04T14:11:26;4.25;4.25;1.00
68198;PMS7003;55021;51.554;17.044;2023-06-04T14:26:40;5.00;5.00;1.00
68198;PMS7003;55021;51.554;17.044;2023-06-04T14:42:00;5.00;5.00;2.00
68198;PMS7003;55021;51.554;17.044;2023-06-04T14:57:07;5.00;5.00;1.25
68198;PMS7003;55021;51.554;17.044;2023-06-04T15:27:53;4.25;4.25;1.00
68198;PMS7003;55021;51.554;17.044;2023-06-04T15:43:09;5.00;5.00;1.00
68198;PMS7003;55021;51.554;17.044;2023-06-04T16:29:07;5.25;5.25;1.25
68198;PMS7003;55021;51.554;17.044;2023-06-04T16:44:11;5.25;5.00;1.00
68198;PMS7003;55021;51.554;17.044;2023-06-04T16:59:19;6.75;6.75;2.25
68198;PMS7003;55021;51.554;17.044;2023-06-04T17:14:24;8.00;7.25;2.75
68198;PMS7003;55021;51.554;17.044;2023-06-04T17:29:26;7.50;5.00;2.00
68198;PMS7003;55021;51.554;17.044;2023-06-04T18:15:14;5.50;5.50;2.00
68198;PMS7003;55021;51.554;17.044;2023-06-04T18:30:17;6.25;6.00;2.00
68198;PMS7003;55021;51.554;17.044;2023-06-04T18:45:19;5.00;5.00;2.25
68198;PMS7003;55021;51.554;17.044;2023-06-04T19:00:22;16.50;13.00;7.75
68198;PMS7003;55021;51.554;17.044;2023-06-04T19:15:25;19.25;14.75;7.75
68198;PMS7003;55021;51.554;17.044;2023-06-04T19:30:28;11.00;9.50;5.00
68198;PMS7003;55021;51.554;17.044;2023-06-04T19:45:30;52.50;38.50;22.25
68198;PMS7003;55021;51.554;17.044;2023-06-04T20:00:33;10.50;8.50;5.00
68198;PMS7003;55021;51.554;17.044;2023-06-04T20:15:36;14.75;13.00;7.00
68198;PMS7003;55021;51.554;17.044;2023-06-04T20:30:38;19.75;17.50;10.00
68198;PMS7003;55021;51.554;17.044;2023-06-04T20:45:41;50.50;36.50;21.75
68198;PMS7003;55021;51.554;17.044;2023-06-04T21:00:45;16.75;11.75;7.00
68198;PMS7003;55021;51.554;17.044;2023-06-04T21:16:02;26.75;23.75;12.50
68198;PMS7003;55021;51.554;17.044;2023-06-04T22:18:52;16.25;15.00;9.25
68198;PMS7003;55021;51.554;17.044;2023-06-04T22:34:29;18.75;17.00;10.00
68198;PMS7003;55021;51.554;17.044;2023-06-04T22:49:32;19.25;17.50;11.00
68198;PMS7003;55021;51.554;17.044;2023-06-04T23:04:53;18.25;16.00;10.00
68198;PMS7003;55021;51.554;17.044;2023-06-04T23:20:13;21.75;17.00;10.00
68198;PMS7003;55021;51.554;17.044;2023-06-04T23:50:58;21.00;19.25;13.00
